createdAt,value
2022-12-27T00:00:05.119Z,100153.41
2022-12-27T00:02:31.468Z,100156.88
2022-12-27T00:04:57.964Z,100150.78
2022-12-27T00:07:24.279Z,100147.31
2022-12-27T00:09:50.862Z,100149.13
2022-12-27T00:12:17.181Z,100148.25
2022-12-27T00:14:43.491Z,100143.97
2022-12-27T00:17:09.833Z,100149.22
2022-12-27T00:19:36.157Z,100144.84
2022-12-27T00:22:02.626Z,100149.22
2022-12-27T00:24:28.989Z,100157.94
2022-12-27T00:26:55.314Z,100154.44
2022-12-27T00:29:21.619Z,100165.78
2022-12-27T00:31:48.232Z,100167.50
2022-12-27T00:34:14.563Z,100173.59
2022-12-27T00:36:40.904Z,100167.50
2022-12-27T00:39:07.223Z,100184.06
2022-12-27T00:41:33.632Z,100172.69
2022-12-27T00:43:59.942Z,100174.44
2022-12-27T00:46:26.279Z,100185.75
2022-12-27T00:48:52.917Z,100185.75
2022-12-27T00:51:22.119Z,100177.00
2022-12-27T00:53:49.577Z,100188.31
2022-12-27T00:56:22.014Z,100185.75
2022-12-27T00:58:53.127Z,100181.41
2022-12-27T01:01:21.415Z,100191.84
2022-12-27T01:03:47.977Z,100193.56
2022-12-27T01:06:20.099Z,100195.31
2022-12-27T01:08:47.493Z,100184.84
2022-12-27T01:11:15.114Z,100189.22
2022-12-27T01:13:42.632Z,100194.44
2022-12-27T01:16:18.020Z,100203.22
2022-12-27T01:18:44.571Z,100210.13
2022-12-27T01:21:13.313Z,100213.59
2022-12-27T01:23:40.044Z,100222.22
2022-12-27T01:26:10.414Z,100216.09
2022-12-27T01:28:37.338Z,100213.41
2022-12-27T01:31:14.993Z,100218.53
2022-12-27T01:33:41.557Z,100227.09
2022-12-27T01:36:10.185Z,100227.91
2022-12-27T01:38:36.494Z,100218.19
2022-12-27T01:41:22.782Z,100224.22
2022-12-27T01:43:49.254Z,100231.97
2022-12-27T01:46:16.044Z,100223.25
2022-12-27T01:48:42.554Z,100223.25
2022-12-27T01:51:10.920Z,100226.75
2022-12-27T01:53:42.164Z,100229.38
2022-12-27T02:01:45.590Z,100215.41
2022-12-27T02:04:18.812Z,100225.88
2022-12-27T02:06:46.753Z,100219.81
2022-12-27T02:09:28.031Z,100217.34
2022-12-27T02:11:56.975Z,100226.91
2022-12-27T02:14:31.193Z,100226.16
2022-12-27T02:17:00.361Z,100225.25
2022-12-27T02:19:32.891Z,100223.53
2022-12-27T02:22:21.328Z,100225.44
2022-12-27T02:25:11.377Z,100218.53
2022-12-27T02:27:56.128Z,100222.03
2022-12-27T02:30:22.800Z,100222.84
2022-12-27T02:32:53.107Z,100222.06
2022-12-27T02:35:22.538Z,100225.53
2022-12-27T02:37:58.458Z,100226.53
2022-12-27T02:40:45.592Z,100228.22
2022-12-27T02:43:30.869Z,100236.97
2022-12-27T02:46:33.249Z,100238.84
2022-12-27T02:49:18.627Z,100236.19
2022-12-27T02:52:27.834Z,100236.25
2022-12-27T02:55:15.392Z,100232.81
2022-12-27T02:58:20.903Z,100233.66
2022-12-27T03:01:22.885Z,100222.28
2022-12-27T03:03:56.540Z,100223.13
2022-12-27T03:06:41.166Z,100237.84
2022-12-27T03:09:52.644Z,100248.31
2022-12-27T03:12:49.732Z,100240.25
2022-12-27T03:15:56.167Z,100232.44
2022-12-27T03:18:44.343Z,100234.94
2022-12-27T03:21:32.887Z,100237.34
2022-12-27T03:24:35.726Z,100232.06
2022-12-27T03:27:07.825Z,100232.84
2022-12-27T03:29:52.894Z,100226.69
2022-12-27T03:32:40.185Z,100245.03
2022-12-27T03:35:18.500Z,100245.94
2022-12-27T03:38:05.125Z,100250.28
2022-12-27T03:41:15.222Z,100253.03
2022-12-27T03:43:42.067Z,100252.03
2022-12-27T03:46:33.971Z,100251.28
2022-12-27T03:49:15.876Z,100258.25
2022-12-27T03:51:55.075Z,100261.75
2022-12-27T03:54:34.734Z,100256.56
2022-12-27T03:57:05.291Z,100252.19
2022-12-27T03:59:31.887Z,100259.94
2022-12-27T04:02:00.553Z,100258.25
2022-12-27T04:04:27.301Z,100257.34
2022-12-27T04:06:53.993Z,100261.72
2022-12-27T04:09:39.553Z,100259.94
2022-12-27T04:12:24.897Z,100271.28
2022-12-27T04:15:09.691Z,100273.09
2022-12-27T04:17:54.636Z,100272.28
2022-12-27T04:20:39.699Z,100268.84
2022-12-27T04:23:25.238Z,100265.38
2022-12-27T04:26:10.635Z,100263.72
2022-12-27T04:28:55.777Z,100265.59
2022-12-27T04:31:40.750Z,100264.78
2022-12-27T04:34:25.875Z,100260.47
2022-12-27T04:36:52.391Z,100273.53
2022-12-27T04:39:18.937Z,100272.72
2022-12-27T04:42:04.345Z,100277.03
2022-12-27T04:44:49.391Z,100256.09
2022-12-27T04:47:38.128Z,100266.44
2022-12-27T04:50:28.892Z,100278.50
2022-12-27T04:53:13.703Z,100284.53
2022-12-27T04:55:40.182Z,100287.09
2022-12-27T04:58:06.794Z,100284.44
2022-12-27T05:00:52.338Z,100282.69
2022-12-27T05:03:22.967Z,100279.19
2022-12-27T05:05:51.754Z,100286.16
2022-12-27T05:08:38.462Z,100294.84
2022-12-27T05:11:24.644Z,100313.97
2022-12-27T05:14:00.440Z,100310.44
2022-12-27T05:16:41.565Z,100315.69
2022-12-27T05:19:10.374Z,100319.06
2022-12-27T05:21:38.597Z,100322.53
2022-12-27T05:24:24.522Z,100315.53
2022-12-27T05:26:51.040Z,100325.84
2022-12-27T05:29:17.606Z,100316.22
2022-12-27T05:31:44.148Z,100332.66
2022-12-27T05:34:10.735Z,100339.56
2022-12-27T05:36:37.327Z,100342.13
2022-12-27T05:39:03.976Z,100356.00
2022-12-27T05:41:30.567Z,100353.31
2022-12-27T05:44:02.134Z,100352.34
2022-12-27T05:46:33.399Z,100348.75
2022-12-27T05:48:59.964Z,100351.31
2022-12-27T05:51:26.487Z,100346.88
2022-12-27T05:53:53.039Z,100349.44
2022-12-27T05:56:21.525Z,100353.78
2022-12-27T05:58:48.349Z,100354.59
2022-12-27T06:01:17.320Z,100362.44
2022-12-27T06:03:44.715Z,100361.50
2022-12-27T06:06:11.948Z,100357.19
2022-12-27T06:08:39.041Z,100356.28
2022-12-27T06:11:17.443Z,100366.78
2022-12-27T06:13:49.168Z,100369.34
2022-12-27T06:16:15.820Z,100372.75
2022-12-27T06:18:42.838Z,100376.22
2022-12-27T06:21:12.970Z,100371.91
2022-12-27T06:23:41.412Z,100371.00
2022-12-27T06:26:09.533Z,100386.69
2022-12-27T06:28:36.222Z,100390.16
2022-12-27T06:31:03.599Z,100387.56
2022-12-27T06:33:30.987Z,100396.19
2022-12-27T06:35:57.799Z,100390.94
2022-12-27T06:38:24.555Z,100397.03
2022-12-27T06:40:51.109Z,100401.34
2022-12-27T06:43:17.609Z,100407.38
2022-12-27T06:45:44.203Z,100408.19
2022-12-27T06:48:10.799Z,100403.81
2022-12-27T06:50:37.314Z,100403.75
2022-12-27T06:53:03.798Z,100399.38
2022-12-27T06:55:30.261Z,100405.41
2022-12-27T06:57:56.906Z,100404.50
2022-12-27T07:00:23.478Z,100406.22
2022-12-27T07:02:50.066Z,100418.38
2022-12-27T07:05:16.877Z,100420.09
2022-12-27T07:07:43.411Z,100420.09
2022-12-27T07:10:10.107Z,100418.34
2022-12-27T07:12:37.417Z,100428.78
2022-12-27T07:15:07.963Z,100432.25
2022-12-27T07:17:36.162Z,100437.41
2022-12-27T07:20:06.751Z,100448.78
2022-12-27T07:22:34.366Z,100438.28
2022-12-27T07:25:00.958Z,100459.22
2022-12-27T07:27:27.461Z,100450.47
2022-12-27T07:29:53.969Z,100461.81
2022-12-27T07:32:20.579Z,100453.09
2022-12-27T07:34:47.110Z,100453.09
2022-12-27T07:37:13.683Z,100454.03
2022-12-27T07:39:40.174Z,100460.13
2022-12-27T07:42:08.651Z,100463.63
2022-12-27T07:44:35.578Z,100468.88
2022-12-27T07:47:02.179Z,100463.72
2022-12-27T07:49:28.730Z,100466.38
2022-12-27T07:51:55.436Z,100474.25
2022-12-27T07:54:25.089Z,100471.69
2022-12-27T07:59:22.844Z,100486.63
2022-12-27T08:02:04.590Z,100485.00
2022-12-27T08:04:32.407Z,100489.44
2022-12-27T08:07:14.662Z,100489.56
2022-12-27T08:09:43.463Z,100488.66
2022-12-27T08:12:11.273Z,100494.78
2022-12-27T08:14:37.681Z,100501.81
2022-12-27T08:17:29.459Z,100501.91
2022-12-27T08:19:56.009Z,100508.00
2022-12-27T08:22:23.648Z,100508.03
2022-12-27T08:24:50.116Z,100512.38
2022-12-27T08:27:24.419Z,100507.19
2022-12-27T08:29:50.754Z,100502.78
2022-12-27T08:32:17.092Z,100500.19
2022-12-27T08:34:43.474Z,100508.81
2022-12-27T08:37:09.829Z,100513.22
2022-12-27T08:39:36.122Z,100508.81
2022-12-27T08:42:02.560Z,100522.75
2022-12-27T08:44:29.267Z,100514.03
2022-12-27T08:46:55.641Z,100527.84
2022-12-27T08:49:22.416Z,100523.47
2022-12-27T08:51:50.106Z,100532.09
2022-12-27T08:54:16.445Z,100527.69
2022-12-27T08:56:42.781Z,100518.03
2022-12-27T08:59:09.121Z,100523.19
2022-12-27T09:01:35.553Z,100538.84
2022-12-27T09:04:05.283Z,100525.66
2022-12-27T09:06:31.816Z,100529.94
2022-12-27T09:08:59.607Z,100524.69
2022-12-27T09:11:32.773Z,100535.09
2022-12-27T09:14:03.880Z,100543.78
2022-12-27T09:16:31.327Z,100551.53
2022-12-27T09:18:59.018Z,100561.13
2022-12-27T09:21:30.167Z,100555.03
2022-12-27T09:23:56.628Z,100552.38
2022-12-27T09:26:26.469Z,100551.50
2022-12-27T09:28:53.711Z,100544.47
2022-12-27T09:31:21.121Z,100547.09
2022-12-27T09:33:47.951Z,100549.63
2022-12-27T09:36:16.662Z,100563.53
2022-12-27T09:38:43.734Z,100553.03
2022-12-27T09:42:11.773Z,100553.06
2022-12-27T09:44:15.355Z,100569.56
2022-12-27T09:46:53.957Z,100556.47
2022-12-27T09:49:31.103Z,100563.44
2022-12-27T09:52:10.523Z,100559.94
2022-12-27T09:55:05.717Z,100556.38
2022-12-27T09:57:41.702Z,100553.69
2022-12-27T10:00:17.232Z,100554.47
2022-12-27T10:02:44.845Z,100553.50
2022-12-27T10:05:21.984Z,100557.78
2022-12-27T10:07:55.083Z,100558.63
2022-12-27T10:10:27.139Z,100556.84
2022-12-27T10:13:04.098Z,100557.66
2022-12-27T10:15:30.489Z,100556.59
2022-12-27T10:17:59.808Z,100564.31
2022-12-27T10:20:47.434Z,100571.28
2022-12-27T10:23:22.246Z,100572.88
2022-12-27T10:25:55.081Z,100574.41
2022-12-27T10:28:29.002Z,100569.91
2022-12-27T10:30:55.557Z,100576.66
2022-12-27T10:33:30.117Z,100567.03
2022-12-27T10:35:57.646Z,100562.44
2022-12-27T10:38:25.193Z,100557.03
2022-12-27T10:41:00.444Z,100562.16
2022-12-27T10:43:35.374Z,100564.69
2022-12-27T10:46:33.722Z,100567.19
2022-12-27T10:49:23.941Z,100567.97
2022-12-27T10:51:52.912Z,100573.84
2022-12-27T10:54:28.481Z,100570.31
2022-12-27T10:56:56.115Z,100576.28
2022-12-27T10:59:28.139Z,100567.53
2022-12-27T11:02:00.607Z,100560.50
2022-12-27T11:04:28.294Z,100568.28
2022-12-27T11:06:59.531Z,100570.91
2022-12-27T11:09:26.588Z,100583.06
2022-12-27T11:12:15.267Z,100585.78
2022-12-27T11:15:01.003Z,100588.34
2022-12-27T11:17:38.004Z,100582.19
2022-12-27T11:20:20.491Z,100579.47
2022-12-27T11:22:48.796Z,100588.78
2022-12-27T11:25:16.181Z,100586.81
2022-12-27T11:27:52.598Z,100583.09
2022-12-27T11:30:26.775Z,100594.84
2022-12-27T11:32:53.663Z,100593.50
2022-12-27T11:35:22.609Z,100599.31
2022-12-27T11:37:50.599Z,100596.56
2022-12-27T11:40:34.413Z,100597.56
2022-12-27T11:43:08.102Z,100607.97
2022-12-27T11:45:40.328Z,100604.50
2022-12-27T11:48:30.886Z,100596.78
2022-12-27T11:51:23.869Z,100595.03
2022-12-27T11:54:02.021Z,100600.28
2022-12-27T11:56:52.705Z,100602.94
2022-12-27T11:59:38.844Z,100602.72
2022-12-27T12:02:32.152Z,100600.94
2022-12-27T12:05:23.028Z,100598.22
2022-12-27T12:08:23.323Z,100597.44
2022-12-27T12:11:06.978Z,100590.44
2022-12-27T12:13:57.969Z,100585.31
2022-12-27T12:16:51.878Z,100581.09
2022-12-27T12:19:34.162Z,100585.47
2022-12-27T12:22:29.912Z,100596.06
2022-12-27T12:25:24.712Z,100585.59
2022-12-27T12:28:02.174Z,100589.16
2022-12-27T12:30:56.150Z,100582.28
2022-12-27T12:33:48.886Z,100579.66
2022-12-27T12:36:37.015Z,100580.44
2022-12-27T12:39:36.685Z,100576.06
2022-12-27T12:42:29.327Z,100573.28
2022-12-27T12:45:17.647Z,100574.19
2022-12-27T12:47:58.965Z,100570.59
2022-12-27T12:50:53.207Z,100565.31
2022-12-27T12:53:28.944Z,100555.63
2022-12-27T12:56:13.953Z,100556.38
2022-12-27T12:58:43.420Z,100546.59
2022-12-27T13:01:31.490Z,100543.97
2022-12-27T13:04:10.730Z,100546.44
2022-12-27T13:06:55.022Z,100545.47
2022-12-27T13:09:42.721Z,100544.38
2022-12-27T13:12:18.351Z,100538.31
2022-12-27T13:14:47.425Z,100539.09
2022-12-27T13:17:25.380Z,100532.19
2022-12-27T13:20:18.076Z,100526.13
2022-12-27T13:23:10.403Z,100525.16
2022-12-27T13:25:45.739Z,100517.28
2022-12-27T13:28:36.666Z,100510.41
2022-12-27T13:31:09.285Z,100518.16
2022-12-27T13:33:59.181Z,100507.81
2022-12-27T13:36:54.402Z,100500.81
2022-12-27T13:39:35.473Z,100503.34
2022-12-27T13:42:24.259Z,100493.75
2022-12-27T13:45:20.555Z,100487.69
2022-12-27T13:48:08.944Z,100491.19
2022-12-27T13:50:53.844Z,100487.50
2022-12-27T13:53:39.015Z,100486.69
2022-12-27T13:56:53.511Z,100486.63
2022-12-27T14:02:38.267Z,100491.63
2022-12-27T14:05:46.211Z,100483.56
2022-12-27T14:08:27.684Z,100477.16
2022-12-27T14:11:00.838Z,100477.00
2022-12-27T14:13:38.603Z,100469.06
2022-12-27T14:16:26.757Z,100463.59
2022-12-27T14:19:43.157Z,100456.50
2022-12-27T14:22:25.428Z,100453.66
2022-12-27T14:25:10.405Z,100452.50
2022-12-27T14:28:14.214Z,100443.84
2022-12-27T14:31:03.291Z,100454.22
2022-12-27T14:33:48.717Z,100450.56
2022-12-27T14:36:43.266Z,100443.75
2022-12-27T14:39:28.657Z,100445.56
2022-12-27T14:42:30.667Z,100451.72
2022-12-27T14:45:15.947Z,100454.22
2022-12-27T14:48:40.346Z,100454.41
2022-12-27T14:52:00.351Z,100449.94
2022-12-27T14:54:33.867Z,100458.56
2022-12-27T14:57:15.833Z,100455.94
2022-12-27T15:00:12.036Z,100449.94
2022-12-27T15:02:56.617Z,100449.16
2022-12-27T15:05:46.641Z,100448.28
2022-12-27T15:08:31.681Z,100448.63
2022-12-27T15:11:25.673Z,100437.47
2022-12-27T15:13:52.214Z,100437.53
2022-12-27T15:16:30.697Z,100437.78
2022-12-27T15:19:41.603Z,100448.50
2022-12-27T15:22:52.400Z,100441.69
2022-12-27T15:25:18.819Z,100437.31
2022-12-27T15:28:00.560Z,100440.19
2022-12-27T15:30:55.145Z,100444.66
2022-12-27T15:33:26.180Z,100444.56
2022-12-27T15:35:58.438Z,100434.13
2022-12-27T15:38:41.203Z,100432.56
2022-12-27T15:41:07.782Z,100429.06
2022-12-27T15:43:57.159Z,100430.97
2022-12-27T15:46:38.892Z,100432.75
2022-12-27T15:49:05.362Z,100428.34
2022-12-27T15:51:45.194Z,100425.91
2022-12-27T15:54:39.380Z,100425.16
2022-12-27T15:57:33.504Z,100418.25
2022-12-27T16:00:33.844Z,100418.38
2022-12-27T16:03:03.242Z,100419.16
2022-12-27T16:05:49.363Z,100419.28
2022-12-27T16:08:27.598Z,100417.56
2022-12-27T16:10:55.754Z,100420.19
2022-12-27T16:13:43.294Z,100415.13
2022-12-27T16:16:33.439Z,100419.44
2022-12-27T16:19:12.237Z,100418.59
2022-12-27T16:21:45.082Z,100418.72
2022-12-27T16:24:17.399Z,100418.75
2022-12-27T16:26:51.696Z,100416.25
2022-12-27T16:29:18.546Z,100415.28
2022-12-27T16:31:50.323Z,100404.00
2022-12-27T16:34:30.201Z,100404.00
2022-12-27T16:37:00.916Z,100401.38
2022-12-27T16:39:33.418Z,100397.88
2022-12-27T16:42:06.064Z,100397.03
2022-12-27T16:44:44.710Z,100390.91
2022-12-27T16:47:34.968Z,100398.84
2022-12-27T16:50:26.869Z,100406.66
2022-12-27T16:53:14.533Z,100394.41
2022-12-27T16:56:05.827Z,100393.56
2022-12-27T16:58:39.297Z,100393.63
2022-12-27T17:01:27.033Z,100397.94
2022-12-27T17:03:55.105Z,100395.31
2022-12-27T17:06:37.000Z,100397.94
2022-12-27T17:09:09.422Z,100397.19
2022-12-27T17:11:41.717Z,100396.28
2022-12-27T17:14:27.921Z,100385.06
2022-12-27T17:17:03.109Z,100387.59
2022-12-27T17:19:36.233Z,100380.72
2022-12-27T17:22:08.057Z,100378.97
2022-12-27T17:24:34.625Z,100381.53
2022-12-27T17:27:16.429Z,100375.56
2022-12-27T17:30:17.672Z,100373.75
2022-12-27T17:32:59.983Z,100375.47
2022-12-27T17:35:59.730Z,100369.38
2022-12-27T17:38:35.234Z,100366.59
2022-12-27T17:41:05.575Z,100371.81
2022-12-27T17:44:18.243Z,100369.25
2022-12-27T17:47:21.515Z,100372.75
2022-12-27T17:49:48.968Z,100355.06
2022-12-27T17:52:36.526Z,100362.06
2022-12-27T17:55:37.621Z,100355.06
2022-12-27T17:58:08.036Z,100351.50
2022-12-27T18:00:43.580Z,100342.75
2022-12-27T18:03:13.123Z,100338.28
2022-12-27T18:05:43.098Z,100337.44
2022-12-27T18:08:26.033Z,100335.72
2022-12-27T18:10:52.756Z,100323.38
2022-12-27T18:13:22.695Z,100320.75
2022-12-27T18:15:50.897Z,100325.06
2022-12-27T18:18:38.344Z,100323.47
2022-12-27T18:21:07.013Z,100313.72
2022-12-27T18:23:42.314Z,100318.94
2022-12-27T18:26:14.101Z,100310.16
2022-12-27T18:28:42.340Z,100299.63
2022-12-27T18:31:27.097Z,100307.44
2022-12-27T18:34:00.068Z,100309.16
2022-12-27T18:36:31.978Z,100311.66
2022-12-27T18:39:13.277Z,100303.69
2022-12-27T18:41:51.435Z,100300.25
2022-12-27T18:44:27.113Z,100295.75
2022-12-27T18:46:56.654Z,100284.34
2022-12-27T18:49:30.647Z,100286.91
2022-12-27T18:51:58.014Z,100285.06
2022-12-27T18:54:27.716Z,100280.69
2022-12-27T18:56:55.253Z,100277.97
2022-12-27T18:59:28.760Z,100271.84
2022-12-27T19:01:58.701Z,100270.88
2022-12-27T19:04:33.663Z,100260.38
2022-12-27T19:07:12.917Z,100268.19
2022-12-27T19:09:48.377Z,100264.75
2022-12-27T19:12:35.199Z,100264.66
2022-12-27T19:15:02.749Z,100258.38
2022-12-27T19:17:31.708Z,100250.50
2022-12-27T19:20:02.001Z,100242.59
2022-12-27T19:22:36.755Z,100251.22
2022-12-27T19:25:18.667Z,100248.53
2022-12-27T19:28:09.835Z,100245.94
2022-12-27T19:30:43.929Z,100252.75
2022-12-27T19:33:22.565Z,100250.88
2022-12-27T19:35:49.077Z,100246.34
2022-12-27T19:38:21.561Z,100266.44
2022-12-27T19:40:50.173Z,100247.13
2022-12-27T19:43:18.215Z,100258.41
2022-12-27T19:45:44.999Z,100233.94
2022-12-27T19:48:11.650Z,100232.13
2022-12-27T19:50:46.641Z,100223.44
2022-12-27T19:53:22.763Z,100228.69
2022-12-27T19:55:49.248Z,100225.03
2022-12-27T19:58:21.184Z,100229.56
2022-12-27T20:00:47.898Z,100220.69
2022-12-27T20:03:14.473Z,100221.53
2022-12-27T20:06:13.329Z,100225.03
2022-12-27T20:08:38.065Z,100211.13
2022-12-27T20:11:07.425Z,100231.19
2022-12-27T20:13:33.953Z,100209.41
2022-12-27T20:16:00.609Z,100217.28
2022-12-27T20:18:27.082Z,100211.25
2022-12-27T20:20:53.677Z,100190.28
2022-12-27T20:23:20.441Z,100202.69
2022-12-27T20:25:48.733Z,100199.25
2022-12-27T20:28:16.849Z,100193.28
2022-12-27T20:30:44.529Z,100188.03
2022-12-27T20:33:11.265Z,100185.66
2022-12-27T20:35:37.611Z,100177.06
2022-12-27T20:38:04.370Z,100188.59
2022-12-27T20:40:31.270Z,100184.31
2022-12-27T20:42:57.917Z,100184.44
2022-12-27T20:45:24.624Z,100181.09
2022-12-27T20:47:51.008Z,100177.75
2022-12-27T20:50:17.691Z,100172.69
2022-12-27T20:52:44.115Z,100172.81
2022-12-27T20:55:12.314Z,100175.56
2022-12-27T20:57:39.258Z,100179.22
2022-12-27T21:00:07.822Z,100174.09
2022-12-27T21:02:34.601Z,100188.22
2022-12-27T21:05:01.299Z,100182.25
2022-12-27T21:07:27.700Z,100181.59
2022-12-27T21:09:54.134Z,100171.16
2022-12-27T21:12:20.584Z,100160.78
2022-12-27T21:14:47.332Z,100159.09
2022-12-27T21:17:13.647Z,100146.09
2022-12-27T21:19:39.949Z,100153.09
2022-12-27T21:22:06.559Z,100155.81
2022-12-27T21:24:33.255Z,100142.81
2022-12-27T21:26:59.619Z,100140.31
2022-12-27T21:29:25.946Z,100142.16
2022-12-27T21:31:53.215Z,100144.88
2022-12-27T21:34:20.503Z,100141.44
2022-12-27T21:36:51.081Z,100145.09
2022-12-27T21:39:17.560Z,100145.09
2022-12-27T21:41:43.923Z,100136.44
2022-12-27T21:44:10.345Z,100136.50
2022-12-27T21:46:39.598Z,100137.44
2022-12-27T21:49:12.301Z,100134.00
2022-12-27T21:51:39.920Z,100139.22
2022-12-27T21:54:06.984Z,100137.47
2022-12-27T21:56:33.827Z,100129.69
2022-12-27T21:59:01.709Z,100135.84
2022-12-27T22:01:30.680Z,100140.19
2022-12-27T22:04:16.915Z,100122.78
2022-12-27T22:06:46.828Z,100125.53
2022-12-27T22:09:14.055Z,100128.13
2022-12-27T22:11:40.446Z,100115.13
2022-12-27T22:14:06.931Z,100114.25
2022-12-27T22:16:38.801Z,100101.22
2022-12-27T22:19:07.482Z,100095.97
2022-12-27T22:21:35.672Z,100098.66
2022-12-27T22:24:02.953Z,100081.25
2022-12-27T22:26:37.080Z,100062.19
2022-12-27T22:29:04.834Z,100064.81
2022-12-27T22:31:35.107Z,100050.84
2022-12-27T22:34:03.347Z,100053.56
2022-12-27T22:36:30.120Z,100051.00
2022-12-27T22:38:58.180Z,100053.72
2022-12-27T22:41:33.475Z,100051.25
2022-12-27T22:44:05.162Z,100045.16
2022-12-27T22:46:58.727Z,100032.16
2022-12-27T22:49:18.406Z,100025.25
2022-12-27T22:51:45.249Z,100027.13
2022-12-27T22:54:11.556Z,100021.13
2022-12-27T22:56:40.144Z,100019.38
2022-12-27T22:59:07.905Z,100004.66
2022-12-27T23:01:34.754Z,100007.28
2022-12-27T23:04:03.990Z,99997.66
2022-12-27T23:06:32.410Z,99982.03
2022-12-27T23:08:58.884Z,99993.34
2022-12-27T23:11:30.630Z,99989.00
2022-12-27T23:14:02.452Z,99984.63
2022-12-27T23:16:34.576Z,99975.88
2022-12-27T23:19:00.940Z,99967.22
2022-12-27T23:21:27.253Z,99973.25
2022-12-27T23:23:53.598Z,99961.03
2022-12-27T23:26:22.622Z,99950.56
2022-12-27T23:28:50.488Z,99952.31
2022-12-27T23:31:17.996Z,99940.94
2022-12-27T23:33:45.018Z,99947.00
2022-12-27T23:36:12.743Z,99944.34
2022-12-27T23:38:41.711Z,99940.81
2022-12-27T23:41:10.813Z,99941.66
2022-12-27T23:43:52.295Z,99940.81
2022-12-27T23:46:21.349Z,99928.53
2022-12-27T23:48:47.799Z,99912.81
2022-12-27T23:51:14.678Z,99924.97
2022-12-27T23:53:41.247Z,99905.75
2022-12-27T23:56:34.100Z,99910.25
2022-12-27T23:59:02.213Z,99897.78
